sensor_id;sensor_type;location;lat;lon;timestamp;pressure;altitude;pressure_sealevel;temperature;humidity
72486;BME280;60509;47.308;-122.428;2022-08-19T00:00:30;100207.23;;;25.40;23.88
72486;BME280;60509;47.308;-122.428;2022-08-19T00:02:55;100205.69;;;23.02;25.64
72486;BME280;60509;47.308;-122.428;2022-08-19T00:05:21;100206.11;;;25.80;23.34
72486;BME280;60509;47.308;-122.428;2022-08-19T00:07:46;100208.79;;;25.97;22.85
72486;BME280;60509;47.308;-122.428;2022-08-19T00:10:13;100204.32;;;27.11;22.47
72486;BME280;60509;47.308;-122.428;2022-08-19T00:12:37;100196.06;;;27.82;21.80
72486;BME280;60509;47.308;-122.428;2022-08-19T00:15:02;100196.04;;;28.36;21.42
72486;BME280;60509;47.308;-122.428;2022-08-19T00:17:27;100198.68;;;28.16;21.38
72486;BME280;60509;47.308;-122.428;2022-08-19T00:19:52;100196.45;;;27.87;21.15
72486;BME280;60509;47.308;-122.428;2022-08-19T00:22:17;100193.44;;;26.76;21.86
72486;BME280;60509;47.308;-122.428;2022-08-19T00:24:43;100193.58;;;27.97;21.41
72486;BME280;60509;47.308;-122.428;2022-08-19T00:27:08;100187.16;;;27.81;21.23
72486;BME280;60509;47.308;-122.428;2022-08-19T00:29:33;100183.05;;;28.72;21.64
72486;BME280;60509;47.308;-122.428;2022-08-19T00:31:59;100183.54;;;27.16;22.59
72486;BME280;60509;47.308;-122.428;2022-08-19T00:34:25;100177.45;;;29.05;21.25
72486;BME280;60509;47.308;-122.428;2022-08-19T00:36:49;100180.76;;;27.66;22.85
72486;BME280;60509;47.308;-122.428;2022-08-19T00:39:16;100175.64;;;29.11;22.09
72486;BME280;60509;47.308;-122.428;2022-08-19T00:41:40;100177.61;;;29.88;20.41
72486;BME280;60509;47.308;-122.428;2022-08-19T00:44:09;100188.92;;;28.38;21.28
72486;BME280;60509;47.308;-122.428;2022-08-19T00:46:31;100196.78;;;29.90;19.85
72486;BME280;60509;47.308;-122.428;2022-08-19T00:48:56;100195.89;;;28.53;20.94
72486;BME280;60509;47.308;-122.428;2022-08-19T00:51:20;100192.97;;;27.80;22.23
72486;BME280;60509;47.308;-122.428;2022-08-19T00:53:46;100192.75;;;27.53;23.24
72486;BME280;60509;47.308;-122.428;2022-08-19T00:56:11;100190.51;;;26.09;24.34
72486;BME280;60509;47.308;-122.428;2022-08-19T00:58:36;100188.81;;;24.90;25.08
72486;BME280;60509;47.308;-122.428;2022-08-19T01:01:03;100176.11;;;27.02;24.18
72486;BME280;60509;47.308;-122.428;2022-08-19T01:03:27;100173.09;;;26.53;24.74
72486;BME280;60509;47.308;-122.428;2022-08-19T01:05:54;100175.01;;;27.23;23.86
72486;BME280;60509;47.308;-122.428;2022-08-19T01:08:19;100176.58;;;24.96;25.35
72486;BME280;60509;47.308;-122.428;2022-08-19T01:10:47;100181.14;;;27.46;23.50
72486;BME280;60509;47.308;-122.428;2022-08-19T01:13:09;100184.82;;;27.41;22.99
72486;BME280;60509;47.308;-122.428;2022-08-19T01:15:40;100190.49;;;27.45;23.11
72486;BME280;60509;47.308;-122.428;2022-08-19T01:18:01;100195.13;;;26.59;25.43
72486;BME280;60509;47.308;-122.428;2022-08-19T01:20:25;100198.25;;;25.33;26.91
72486;BME280;60509;47.308;-122.428;2022-08-19T01:22:52;100199.87;;;27.20;25.44
72486;BME280;60509;47.308;-122.428;2022-08-19T01:25:18;100187.94;;;23.78;26.80
72486;BME280;60509;47.308;-122.428;2022-08-19T01:27:43;100185.34;;;24.81;25.55
72486;BME280;60509;47.308;-122.428;2022-08-19T01:30:07;100186.02;;;26.32;24.51
72486;BME280;60509;47.308;-122.428;2022-08-19T01:32:31;100190.89;;;26.19;23.74
72486;BME280;60509;47.308;-122.428;2022-08-19T01:34:56;100184.54;;;27.68;22.31
72486;BME280;60509;47.308;-122.428;2022-08-19T01:37:21;100176.26;;;28.20;21.97
72486;BME280;60509;47.308;-122.428;2022-08-19T01:39:47;100162.77;;;29.17;22.10
72486;BME280;60509;47.308;-122.428;2022-08-19T01:42:12;100161.45;;;28.69;22.64
72486;BME280;60509;47.308;-122.428;2022-08-19T01:44:38;100165.02;;;26.99;23.63
72486;BME280;60509;47.308;-122.428;2022-08-19T01:47:04;100153.61;;;26.60;24.06
72486;BME280;60509;47.308;-122.428;2022-08-19T01:49:28;100148.00;;;27.54;23.24
72486;BME280;60509;47.308;-122.428;2022-08-19T01:51:54;100142.68;;;27.33;23.40
72486;BME280;60509;47.308;-122.428;2022-08-19T01:54:20;100144.71;;;29.03;22.08
72486;BME280;60509;47.308;-122.428;2022-08-19T01:56:44;100146.85;;;27.35;22.67
72486;BME280;60509;47.308;-122.428;2022-08-19T01:59:14;100153.67;;;25.29;24.34
72486;BME280;60509;47.308;-122.428;2022-08-19T02:01:35;100160.04;;;24.72;26.21
72486;BME280;60509;47.308;-122.428;2022-08-19T02:04:00;100164.94;;;25.29;25.39
72486;BME280;60509;47.308;-122.428;2022-08-19T02:06:26;100168.80;;;23.73;27.02
72486;BME280;60509;47.308;-122.428;2022-08-19T02:08:51;100163.89;;;24.21;27.66
72486;BME280;60509;47.308;-122.428;2022-08-19T02:11:21;100156.25;;;26.56;25.98
72486;BME280;60509;47.308;-122.428;2022-08-19T02:13:41;100148.68;;;25.94;26.53
72486;BME280;60509;47.308;-122.428;2022-08-19T02:16:07;100142.08;;;25.44;27.53
72486;BME280;60509;47.308;-122.428;2022-08-19T02:18:32;100140.63;;;24.89;27.78
72486;BME280;60509;47.308;-122.428;2022-08-19T02:20:57;100145.28;;;23.64;29.02
72486;BME280;60509;47.308;-122.428;2022-08-19T02:23:23;100141.00;;;24.01;29.04
72486;BME280;60509;47.308;-122.428;2022-08-19T02:25:48;100139.80;;;23.63;29.82
72486;BME280;60509;47.308;-122.428;2022-08-19T02:28:14;100140.19;;;24.35;29.17
72486;BME280;60509;47.308;-122.428;2022-08-19T02:30:41;100138.91;;;24.01;29.85
72486;BME280;60509;47.308;-122.428;2022-08-19T02:33:04;100143.07;;;23.06;30.41
72486;BME280;60509;47.308;-122.428;2022-08-19T02:35:30;100139.87;;;22.90;30.28
72486;BME280;60509;47.308;-122.428;2022-08-19T02:37:55;100135.82;;;22.82;29.90
72486;BME280;60509;47.308;-122.428;2022-08-19T02:40:20;100128.29;;;22.53;29.89
72486;BME280;60509;47.308;-122.428;2022-08-19T02:42:46;100123.28;;;22.16;30.19
72486;BME280;60509;47.308;-122.428;2022-08-19T02:45:12;100120.30;;;22.61;30.09
72486;BME280;60509;47.308;-122.428;2022-08-19T02:47:36;100121.17;;;22.58;30.04
72486;BME280;60509;47.308;-122.428;2022-08-19T02:50:03;100119.52;;;23.67;29.25
72486;BME280;60509;47.308;-122.428;2022-08-19T02:52:27;100118.89;;;24.44;28.32
72486;BME280;60509;47.308;-122.428;2022-08-19T02:54:53;100118.47;;;24.36;28.14
72486;BME280;60509;47.308;-122.428;2022-08-19T02:57:18;100115.10;;;24.21;28.13
72486;BME280;60509;47.308;-122.428;2022-08-19T02:59:43;100113.61;;;23.98;28.31
72486;BME280;60509;47.308;-122.428;2022-08-19T03:02:09;100112.87;;;22.68;30.35
72486;BME280;60509;47.308;-122.428;2022-08-19T03:04:34;100109.50;;;22.68;30.38
72486;BME280;60509;47.308;-122.428;2022-08-19T03:07:00;100118.21;;;20.98;31.84
72486;BME280;60509;47.308;-122.428;2022-08-19T03:09:25;100122.23;;;21.09;32.40
72486;BME280;60509;47.308;-122.428;2022-08-19T03:11:51;100123.34;;;22.37;31.68
72486;BME280;60509;47.308;-122.428;2022-08-19T03:14:16;100122.89;;;21.12;33.05
72486;BME280;60509;47.308;-122.428;2022-08-19T03:16:43;100119.43;;;22.45;32.05
72486;BME280;60509;47.308;-122.428;2022-08-19T03:19:07;100110.22;;;22.00;32.50
72486;BME280;60509;47.308;-122.428;2022-08-19T03:21:34;100103.67;;;21.66;33.30
72486;BME280;60509;47.308;-122.428;2022-08-19T03:24:01;100101.27;;;21.41;34.71
72486;BME280;60509;47.308;-122.428;2022-08-19T03:26:23;100103.68;;;20.70;35.05
72486;BME280;60509;47.308;-122.428;2022-08-19T03:28:49;100111.26;;;21.97;33.46
72486;BME280;60509;47.308;-122.428;2022-08-19T03:31:15;100116.46;;;19.76;36.10
72486;BME280;60509;47.308;-122.428;2022-08-19T03:33:40;100117.21;;;20.02;35.60
72486;BME280;60509;47.308;-122.428;2022-08-19T03:36:09;100114.30;;;20.66;34.90
72486;BME280;60509;47.308;-122.428;2022-08-19T03:38:31;100108.50;;;20.78;34.64
72486;BME280;60509;47.308;-122.428;2022-08-19T03:40:56;100100.27;;;20.86;34.79
72486;BME280;60509;47.308;-122.428;2022-08-19T03:43:22;100099.19;;;20.70;35.06
72486;BME280;60509;47.308;-122.428;2022-08-19T03:45:47;100100.32;;;19.47;36.76
72486;BME280;60509;47.308;-122.428;2022-08-19T03:48:13;100100.93;;;19.58;36.74
72486;BME280;60509;47.308;-122.428;2022-08-19T03:50:39;100105.19;;;19.91;36.28
72486;BME280;60509;47.308;-122.428;2022-08-19T03:53:04;100109.19;;;19.69;36.52
72486;BME280;60509;47.308;-122.428;2022-08-19T03:55:30;100120.16;;;20.53;36.13
72486;BME280;60509;47.308;-122.428;2022-08-19T03:57:55;100135.72;;;20.21;36.22
72486;BME280;60509;47.308;-122.428;2022-08-19T04:00:21;100152.17;;;18.71;37.53
72486;BME280;60509;47.308;-122.428;2022-08-19T04:02:46;100161.06;;;19.35;37.47
72486;BME280;60509;47.308;-122.428;2022-08-19T04:05:12;100160.81;;;19.51;37.58
72486;BME280;60509;47.308;-122.428;2022-08-19T04:07:37;100162.02;;;19.76;37.02
72486;BME280;60509;47.308;-122.428;2022-08-19T04:10:04;100161.23;;;20.04;36.58
72486;BME280;60509;47.308;-122.428;2022-08-19T04:12:29;100161.95;;;19.33;37.05
72486;BME280;60509;47.308;-122.428;2022-08-19T04:14:54;100167.53;;;19.76;36.38
72486;BME280;60509;47.308;-122.428;2022-08-19T04:17:20;100162.41;;;19.34;36.22
72486;BME280;60509;47.308;-122.428;2022-08-19T04:19:45;100167.66;;;18.69;37.37
72486;BME280;60509;47.308;-122.428;2022-08-19T04:22:11;100168.45;;;19.17;36.98
72486;BME280;60509;47.308;-122.428;2022-08-19T04:24:36;100183.23;;;17.34;40.01
72486;BME280;60509;47.308;-122.428;2022-08-19T04:27:02;100183.92;;;18.94;38.21
72486;BME280;60509;47.308;-122.428;2022-08-19T04:29:28;100179.93;;;18.88;38.40
72486;BME280;60509;47.308;-122.428;2022-08-19T04:31:54;100175.10;;;18.47;38.66
72486;BME280;60509;47.308;-122.428;2022-08-19T04:34:21;100173.79;;;17.68;40.12
72486;BME280;60509;47.308;-122.428;2022-08-19T04:36:45;100179.03;;;18.05;40.52
72486;BME280;60509;47.308;-122.428;2022-08-19T04:39:13;100185.03;;;17.67;40.43
72486;BME280;60509;47.308;-122.428;2022-08-19T04:41:35;100182.46;;;19.06;39.43
72486;BME280;60509;47.308;-122.428;2022-08-19T04:44:01;100171.80;;;19.27;38.34
72486;BME280;60509;47.308;-122.428;2022-08-19T04:46:27;100166.06;;;19.55;38.42
72486;BME280;60509;47.308;-122.428;2022-08-19T04:48:52;100159.60;;;19.39;38.68
72486;BME280;60509;47.308;-122.428;2022-08-19T04:51:18;100158.53;;;18.97;39.07
72486;BME280;60509;47.308;-122.428;2022-08-19T04:53:43;100165.01;;;18.90;39.31
72486;BME280;60509;47.308;-122.428;2022-08-19T04:56:11;100167.51;;;19.76;38.39
72486;BME280;60509;47.308;-122.428;2022-08-19T04:58:35;100171.66;;;18.56;39.48
72486;BME280;60509;47.308;-122.428;2022-08-19T05:01:00;100167.20;;;18.56;39.33
72486;BME280;60509;47.308;-122.428;2022-08-19T05:03:26;100158.76;;;19.75;38.27
72486;BME280;60509;47.308;-122.428;2022-08-19T05:05:51;100147.33;;;18.87;39.15
72486;BME280;60509;47.308;-122.428;2022-08-19T05:08:20;100141.66;;;19.35;38.47
72486;BME280;60509;47.308;-122.428;2022-08-19T05:10:42;100135.58;;;19.08;39.26
72486;BME280;60509;47.308;-122.428;2022-08-19T05:13:08;100139.20;;;18.62;39.30
72486;BME280;60509;47.308;-122.428;2022-08-19T05:15:33;100143.84;;;18.21;39.99
72486;BME280;60509;47.308;-122.428;2022-08-19T05:17:59;100144.23;;;18.33;40.27
72486;BME280;60509;47.308;-122.428;2022-08-19T05:20:24;100139.46;;;19.68;39.19
72486;BME280;60509;47.308;-122.428;2022-08-19T05:22:50;100139.19;;;18.70;40.12
72486;BME280;60509;47.308;-122.428;2022-08-19T05:25:18;100135.13;;;19.07;39.13
72486;BME280;60509;47.308;-122.428;2022-08-19T05:27:42;100136.41;;;17.79;40.77
72486;BME280;60509;47.308;-122.428;2022-08-19T05:30:08;100141.32;;;18.94;39.69
72486;BME280;60509;47.308;-122.428;2022-08-19T05:32:32;100153.01;;;17.94;40.01
72486;BME280;60509;47.308;-122.428;2022-08-19T05:34:58;100157.33;;;17.94;39.68
72486;BME280;60509;47.308;-122.428;2022-08-19T05:37:24;100167.31;;;17.30;41.87
72486;BME280;60509;47.308;-122.428;2022-08-19T05:39:49;100169.10;;;17.11;41.98
72486;BME280;60509;47.308;-122.428;2022-08-19T05:42:15;100167.28;;;17.16;41.97
72486;BME280;60509;47.308;-122.428;2022-08-19T05:44:42;100159.13;;;18.81;39.59
72486;BME280;60509;47.308;-122.428;2022-08-19T05:47:07;100154.92;;;18.69;39.41
72486;BME280;60509;47.308;-122.428;2022-08-19T05:49:33;100149.15;;;18.86;39.38
72486;BME280;60509;47.308;-122.428;2022-08-19T05:51:57;100143.22;;;18.25;39.16
72486;BME280;60509;47.308;-122.428;2022-08-19T05:54:24;100134.51;;;18.66;38.80
72486;BME280;60509;47.308;-122.428;2022-08-19T05:56:49;100127.87;;;17.88;40.23
72486;BME280;60509;47.308;-122.428;2022-08-19T05:59:15;100122.05;;;16.51;41.38
72486;BME280;60509;47.308;-122.428;2022-08-19T06:01:41;100115.88;;;16.55;41.54
72486;BME280;60509;47.308;-122.428;2022-08-19T06:04:05;100117.42;;;16.66;40.87
72486;BME280;60509;47.308;-122.428;2022-08-19T06:06:31;100129.59;;;15.56;42.11
72486;BME280;60509;47.308;-122.428;2022-08-19T06:08:56;100134.85;;;15.74;41.36
72486;BME280;60509;47.308;-122.428;2022-08-19T06:11:24;100136.36;;;15.98;42.22
72486;BME280;60509;47.308;-122.428;2022-08-19T06:13:50;100139.27;;;16.14;43.46
72486;BME280;60509;47.308;-122.428;2022-08-19T06:16:14;100135.32;;;14.62;45.43
72486;BME280;60509;47.308;-122.428;2022-08-19T06:18:39;100130.44;;;14.73;47.19
72486;BME280;60509;47.308;-122.428;2022-08-19T06:21:05;100127.49;;;15.25;46.02
72486;BME280;60509;47.308;-122.428;2022-08-19T06:23:31;100123.95;;;15.04;46.37
72486;BME280;60509;47.308;-122.428;2022-08-19T06:25:56;100130.40;;;15.32;45.28
72486;BME280;60509;47.308;-122.428;2022-08-19T06:28:22;100140.06;;;15.56;44.09
72486;BME280;60509;47.308;-122.428;2022-08-19T06:30:47;100153.74;;;15.91;43.48
72486;BME280;60509;47.308;-122.428;2022-08-19T06:33:13;100161.65;;;15.66;45.44
72486;BME280;60509;47.308;-122.428;2022-08-19T06:35:39;100150.34;;;16.56;44.14
72486;BME280;60509;47.308;-122.428;2022-08-19T06:38:04;100137.03;;;16.37;45.50
72486;BME280;60509;47.308;-122.428;2022-08-19T06:40:31;100129.92;;;16.97;43.04
72486;BME280;60509;47.308;-122.428;2022-08-19T06:42:56;100139.73;;;17.27;41.83
72486;BME280;60509;47.308;-122.428;2022-08-19T06:45:22;100148.39;;;17.28;41.25
72486;BME280;60509;47.308;-122.428;2022-08-19T06:47:47;100142.49;;;16.38;42.59
72486;BME280;60509;47.308;-122.428;2022-08-19T06:50:12;100135.96;;;17.22;41.85
72486;BME280;60509;47.308;-122.428;2022-08-19T06:52:38;100136.04;;;16.32;41.11
72486;BME280;60509;47.308;-122.428;2022-08-19T06:55:05;100139.85;;;15.29;42.16
72486;BME280;60509;47.308;-122.428;2022-08-19T06:57:30;100142.30;;;16.13;41.89
72486;BME280;60509;47.308;-122.428;2022-08-19T06:59:55;100131.65;;;16.87;40.75
72486;BME280;60509;47.308;-122.428;2022-08-19T07:02:21;100116.68;;;16.94;41.05
72486;BME280;60509;47.308;-122.428;2022-08-19T07:04:47;100117.34;;;17.03;42.30
72486;BME280;60509;47.308;-122.428;2022-08-19T07:07:14;100127.38;;;16.46;43.26
72486;BME280;60509;47.308;-122.428;2022-08-19T07:09:39;100133.59;;;16.53;42.95
72486;BME280;60509;47.308;-122.428;2022-08-19T07:12:06;100132.52;;;16.30;43.14
72486;BME280;60509;47.308;-122.428;2022-08-19T07:14:29;100145.08;;;17.29;43.12
72486;BME280;60509;47.308;-122.428;2022-08-19T07:16:56;100157.92;;;16.79;43.65
72486;BME280;60509;47.308;-122.428;2022-08-19T07:19:22;100157.68;;;16.01;44.09
72486;BME280;60509;47.308;-122.428;2022-08-19T07:21:48;100159.89;;;16.23;43.37
72486;BME280;60509;47.308;-122.428;2022-08-19T07:24:11;100154.47;;;17.08;41.93
72486;BME280;60509;47.308;-122.428;2022-08-19T07:26:40;100148.23;;;16.53;42.13
72486;BME280;60509;47.308;-122.428;2022-08-19T07:29:03;100144.04;;;17.12;41.38
72486;BME280;60509;47.308;-122.428;2022-08-19T07:31:29;100125.15;;;17.31;41.37
72486;BME280;60509;47.308;-122.428;2022-08-19T07:33:55;100110.02;;;17.11;41.40
72486;BME280;60509;47.308;-122.428;2022-08-19T07:36:22;100100.08;;;17.16;41.52
72486;BME280;60509;47.308;-122.428;2022-08-19T07:38:48;100090.70;;;16.36;42.69
72486;BME280;60509;47.308;-122.428;2022-08-19T07:41:12;100089.87;;;15.97;43.25
72486;BME280;60509;47.308;-122.428;2022-08-19T07:43:37;100110.85;;;17.37;41.91
72486;BME280;60509;47.308;-122.428;2022-08-19T07:46:03;100127.74;;;15.84;44.00
72486;BME280;60509;47.308;-122.428;2022-08-19T07:48:28;100132.67;;;17.16;42.44
72486;BME280;60509;47.308;-122.428;2022-08-19T07:50:55;100124.27;;;16.56;43.21
72486;BME280;60509;47.308;-122.428;2022-08-19T07:53:19;100108.66;;;17.01;43.20
72486;BME280;60509;47.308;-122.428;2022-08-19T07:55:45;100122.30;;;16.23;44.05
72486;BME280;60509;47.308;-122.428;2022-08-19T07:58:12;100151.02;;;16.95;44.01
72486;BME280;60509;47.308;-122.428;2022-08-19T08:00:36;100147.41;;;15.82;44.98
72486;BME280;60509;47.308;-122.428;2022-08-19T08:03:02;100130.67;;;17.21;43.78
72486;BME280;60509;47.308;-122.428;2022-08-19T08:05:27;100107.38;;;17.02;43.59
72486;BME280;60509;47.308;-122.428;2022-08-19T08:07:53;100099.62;;;16.47;45.23
72486;BME280;60509;47.308;-122.428;2022-08-19T08:10:19;100116.17;;;16.20;44.68
72486;BME280;60509;47.308;-122.428;2022-08-19T08:12:44;100139.43;;;16.51;44.84
72486;BME280;60509;47.308;-122.428;2022-08-19T08:15:13;100133.71;;;15.97;45.40
72486;BME280;60509;47.308;-122.428;2022-08-19T08:17:36;100116.94;;;16.53;44.23
72486;BME280;60509;47.308;-122.428;2022-08-19T08:20:02;100107.26;;;16.09;44.51
72486;BME280;60509;47.308;-122.428;2022-08-19T08:22:27;100106.18;;;15.94;44.40
72486;BME280;60509;47.308;-122.428;2022-08-19T08:24:52;100102.33;;;15.89;44.02
72486;BME280;60509;47.308;-122.428;2022-08-19T08:27:18;100106.85;;;15.90;43.49
72486;BME280;60509;47.308;-122.428;2022-08-19T08:29:43;100111.05;;;15.91;43.69
72486;BME280;60509;47.308;-122.428;2022-08-19T08:32:09;100110.77;;;14.50;45.74
72486;BME280;60509;47.308;-122.428;2022-08-19T08:34:35;100111.41;;;14.05;46.63
72486;BME280;60509;47.308;-122.428;2022-08-19T08:37:00;100119.63;;;13.89;47.39
72486;BME280;60509;47.308;-122.428;2022-08-19T08:39:26;100117.52;;;15.06;45.26
72486;BME280;60509;47.308;-122.428;2022-08-19T08:41:56;100112.74;;;15.25;44.62
72486;BME280;60509;47.308;-122.428;2022-08-19T08:44:21;100112.52;;;15.46;44.73
72486;BME280;60509;47.308;-122.428;2022-08-19T08:46:46;100115.80;;;13.15;48.65
72486;BME280;60509;47.308;-122.428;2022-08-19T08:49:20;100108.50;;;14.57;46.42
72486;BME280;60509;47.308;-122.428;2022-08-19T08:51:42;100107.84;;;13.57;48.76
72486;BME280;60509;47.308;-122.428;2022-08-19T08:54:02;100112.18;;;14.65;48.32
72486;BME280;60509;47.308;-122.428;2022-08-19T08:56:26;100134.75;;;14.29;48.94
72486;BME280;60509;47.308;-122.428;2022-08-19T08:59:00;100147.40;;;13.58;51.09
72486;BME280;60509;47.308;-122.428;2022-08-19T09:01:17;100147.22;;;14.15;49.33
72486;BME280;60509;47.308;-122.428;2022-08-19T09:03:43;100160.57;;;14.34;48.34
72486;BME280;60509;47.308;-122.428;2022-08-19T09:06:14;100169.79;;;14.62;46.52
72486;BME280;60509;47.308;-122.428;2022-08-19T09:08:43;100179.30;;;15.20;45.44
72486;BME280;60509;47.308;-122.428;2022-08-19T09:11:03;100201.34;;;14.47;46.28
72486;BME280;60509;47.308;-122.428;2022-08-19T09:13:33;100214.55;;;14.25;47.09
72486;BME280;60509;47.308;-122.428;2022-08-19T09:15:56;100200.88;;;14.59;46.18
72486;BME280;60509;47.308;-122.428;2022-08-19T09:18:17;100184.66;;;14.89;45.98
72486;BME280;60509;47.308;-122.428;2022-08-19T09:20:43;100166.66;;;15.39;44.77
72486;BME280;60509;47.308;-122.428;2022-08-19T09:23:09;100159.50;;;15.43;44.25
72486;BME280;60509;47.308;-122.428;2022-08-19T09:25:34;100164.84;;;14.16;46.34
72486;BME280;60509;47.308;-122.428;2022-08-19T09:28:01;100171.55;;;14.89;45.30
72486;BME280;60509;47.308;-122.428;2022-08-19T09:30:27;100168.66;;;14.05;47.99
72486;BME280;60509;47.308;-122.428;2022-08-19T09:32:52;100155.10;;;14.90;45.89
72486;BME280;60509;47.308;-122.428;2022-08-19T09:35:17;100140.22;;;15.54;44.56
72486;BME280;60509;47.308;-122.428;2022-08-19T09:37:43;100147.15;;;13.82;46.76
72486;BME280;60509;47.308;-122.428;2022-08-19T09:40:10;100155.57;;;14.47;46.56
72486;BME280;60509;47.308;-122.428;2022-08-19T09:42:34;100149.42;;;13.83;48.03
72486;BME280;60509;47.308;-122.428;2022-08-19T09:45:00;100142.24;;;13.99;46.90
72486;BME280;60509;47.308;-122.428;2022-08-19T09:47:26;100148.12;;;13.57;47.58
72486;BME280;60509;47.308;-122.428;2022-08-19T09:49:51;100161.29;;;13.05;47.93
72486;BME280;60509;47.308;-122.428;2022-08-19T09:52:17;100168.97;;;12.66;48.78
72486;BME280;60509;47.308;-122.428;2022-08-19T09:54:43;100175.87;;;11.70;53.07
72486;BME280;60509;47.308;-122.428;2022-08-19T09:57:08;100174.15;;;11.39;54.39
72486;BME280;60509;47.308;-122.428;2022-08-19T09:59:35;100178.01;;;12.31;51.39
72486;BME280;60509;47.308;-122.428;2022-08-19T10:02:00;100184.68;;;12.08;50.37
72486;BME280;60509;47.308;-122.428;2022-08-19T10:04:26;100183.15;;;12.68;49.43
72486;BME280;60509;47.308;-122.428;2022-08-19T10:06:54;100184.43;;;12.52;49.59
72486;BME280;60509;47.308;-122.428;2022-08-19T10:09:18;100188.12;;;11.15;51.82
72486;BME280;60509;47.308;-122.428;2022-08-19T10:11:44;100188.98;;;12.65;49.29
72486;BME280;60509;47.308;-122.428;2022-08-19T10:14:09;100182.08;;;12.94;49.00
72486;BME280;60509;47.308;-122.428;2022-08-19T10:16:36;100178.12;;;12.55;48.69
72486;BME280;60509;47.308;-122.428;2022-08-19T10:19:00;100186.35;;;12.64;48.96
72486;BME280;60509;47.308;-122.428;2022-08-19T10:21:29;100192.61;;;11.93;50.15
72486;BME280;60509;47.308;-122.428;2022-08-19T10:23:54;100198.84;;;11.96;51.57
72486;BME280;60509;47.308;-122.428;2022-08-19T10:26:20;100202.72;;;11.44;51.89
72486;BME280;60509;47.308;-122.428;2022-08-19T10:28:44;100204.83;;;11.62;51.31
72486;BME280;60509;47.308;-122.428;2022-08-19T10:31:11;100209.15;;;12.59;49.08
72486;BME280;60509;47.308;-122.428;2022-08-19T10:33:36;100199.82;;;12.76;49.53
72486;BME280;60509;47.308;-122.428;2022-08-19T10:36:02;100200.60;;;12.01;50.21
72486;BME280;60509;47.308;-122.428;2022-08-19T10:38:27;100204.96;;;11.02;52.49
72486;BME280;60509;47.308;-122.428;2022-08-19T10:40:52;100203.55;;;11.86;50.72
72486;BME280;60509;47.308;-122.428;2022-08-19T10:43:18;100203.49;;;11.37;51.04
72486;BME280;60509;47.308;-122.428;2022-08-19T10:45:48;100208.63;;;12.48;49.73
72486;BME280;60509;47.308;-122.428;2022-08-19T10:48:10;100211.54;;;12.66;49.20
72486;BME280;60509;47.308;-122.428;2022-08-19T10:50:37;100212.74;;;11.77;51.60
72486;BME280;60509;47.308;-122.428;2022-08-19T10:53:05;100209.51;;;11.44;52.75
72486;BME280;60509;47.308;-122.428;2022-08-19T10:55:27;100205.29;;;11.41;51.74
72486;BME280;60509;47.308;-122.428;2022-08-19T10:57:53;100214.25;;;11.15;52.03
72486;BME280;60509;47.308;-122.428;2022-08-19T11:00:20;100218.22;;;11.60;51.44
72486;BME280;60509;47.308;-122.428;2022-08-19T11:02:44;100217.62;;;11.27;52.14
72486;BME280;60509;47.308;-122.428;2022-08-19T11:05:10;100222.36;;;12.01;52.15
72486;BME280;60509;47.308;-122.428;2022-08-19T11:07:36;100228.07;;;11.25;53.89
72486;BME280;60509;47.308;-122.428;2022-08-19T11:10:02;100227.27;;;10.94;54.07
72486;BME280;60509;47.308;-122.428;2022-08-19T11:12:28;100236.17;;;10.07;55.81
72486;BME280;60509;47.308;-122.428;2022-08-19T11:14:54;100239.91;;;9.99;55.28
72486;BME280;60509;47.308;-122.428;2022-08-19T11:17:19;100235.89;;;10.32;54.35
72486;BME280;60509;47.308;-122.428;2022-08-19T11:19:45;100236.77;;;10.24;54.92
72486;BME280;60509;47.308;-122.428;2022-08-19T11:22:11;100234.38;;;10.48;54.87
72486;BME280;60509;47.308;-122.428;2022-08-19T11:24:37;100236.76;;;10.39;54.71
72486;BME280;60509;47.308;-122.428;2022-08-19T11:27:06;100232.71;;;10.65;54.78
72486;BME280;60509;47.308;-122.428;2022-08-19T11:29:29;100235.08;;;10.87;54.19
72486;BME280;60509;47.308;-122.428;2022-08-19T11:31:55;100239.73;;;10.29;55.16
72486;BME280;60509;47.308;-122.428;2022-08-19T11:34:24;100245.73;;;10.33;56.37
72486;BME280;60509;47.308;-122.428;2022-08-19T11:36:48;100245.64;;;9.42;57.42
72486;BME280;60509;47.308;-122.428;2022-08-19T11:39:15;100247.04;;;9.41;56.68
72486;BME280;60509;47.308;-122.428;2022-08-19T11:41:39;100244.89;;;10.55;55.11
72486;BME280;60509;47.308;-122.428;2022-08-19T11:44:05;100250.83;;;10.69;53.93
72486;BME280;60509;47.308;-122.428;2022-08-19T11:46:30;100260.48;;;10.49;54.70
72486;BME280;60509;47.308;-122.428;2022-08-19T11:48:56;100259.00;;;10.78;53.67
72486;BME280;60509;47.308;-122.428;2022-08-19T11:51:24;100264.80;;;9.19;56.07
72486;BME280;60509;47.308;-122.428;2022-08-19T11:53:48;100266.78;;;10.11;55.29
72486;BME280;60509;47.308;-122.428;2022-08-19T11:56:14;100269.58;;;9.85;55.11
72486;BME280;60509;47.308;-122.428;2022-08-19T11:58:40;100274.55;;;9.93;56.14
72486;BME280;60509;47.308;-122.428;2022-08-19T12:01:07;100277.29;;;9.91;55.92
72486;BME280;60509;47.308;-122.428;2022-08-19T12:03:31;100276.16;;;9.95;55.02
72486;BME280;60509;47.308;-122.428;2022-08-19T12:05:57;100278.31;;;10.53;54.19
72486;BME280;60509;47.308;-122.428;2022-08-19T12:08:23;100276.28;;;10.51;54.19
72486;BME280;60509;47.308;-122.428;2022-08-19T12:10:49;100284.32;;;9.93;55.57